Time;durP1;ratioP1;P1;durP2;ratioP2;P2;SDS_P1;SDS_P2;PMS_P1;PMS_P2;Temp;Humidity;BMP_temperature;BMP_pressure;BME280_temperature;BME280_humidity;BME280_pressure;Samples;Min_cycle;Max_cycle;Signal;HPM_P1;HPM_P2
2021/04/09 00:02:26;;;;;;;48.25;9.15;;;;;;;-1.09;81.39;101378.81;1719729;83;21358;-43
2021/04/09 00:04:55;;;;;;;60.50;9.35;;;;;;;-0.95;81.26;101378.56;1719665;83;21276;-42
2021/04/09 00:07:22;;;;;;;45.58;8.63;;;;;;;-0.84;81.06;101379.87;1719684;83;21007;-42
2021/04/09 00:09:50;;;;;;;35.85;8.35;;;;;;;-0.76;81.00;101378.55;1719601;83;20971;-42
2021/04/09 00:12:19;;;;;;;29.57;8.53;;;;;;;-0.69;80.87;101380.93;1719662;83;21041;-43
2021/04/09 00:14:48;;;;;;;40.38;8.70;;;;;;;-0.60;80.71;101381.73;1719584;83;21058;-42
2021/04/09 00:17:16;;;;;;;36.55;8.33;;;;;;;-0.52;80.44;101384.60;1719641;83;20979;-43
2021/04/09 00:19:44;;;;;;;17.92;6.78;;;;;;;-0.47;80.07;101376.75;1719665;83;21046;-42
2021/04/09 00:22:12;;;;;;;104.67;13.28;;;;;;;-0.44;79.83;101377.77;1719601;83;21002;-42
2021/04/09 00:24:40;;;;;;;58.80;8.13;;;;;;;-0.44;79.63;101380.70;1719589;83;20995;-41
2021/04/09 00:27:08;;;;;;;19.05;6.97;;;;;;;-0.49;79.62;101388.55;1719692;83;21375;-41
2021/04/09 00:29:35;;;;;;;21.05;6.47;;;;;;;-0.51;79.60;101393.97;1719605;83;20983;-42
2021/04/09 00:32:05;;;;;;;9.00;5.28;;;;;;;-0.53;79.75;101395.58;1719688;83;20951;-42
2021/04/09 00:34:32;;;;;;;28.65;6.70;;;;;;;-0.59;79.87;101393.25;1719662;83;20939;-41
2021/04/09 00:37:03;;;;;;;27.95;7.42;;;;;;;-0.63;79.88;101393.94;1719567;82;21050;-41
2021/04/09 00:39:31;;;;;;;13.65;5.95;;;;;;;-0.65;80.02;101401.88;1719687;83;21213;-43
2021/04/09 00:41:58;;;;;;;18.85;6.92;;;;;;;-0.64;80.01;101407.42;1719554;83;20987;-42
2021/04/09 00:44:26;;;;;;;20.50;7.17;;;;;;;-0.65;79.93;101409.92;1719606;83;21034;-42
2021/04/09 00:46:54;;;;;;;16.82;6.87;;;;;;;-0.62;79.70;101410.05;1719590;82;21066;-41
2021/04/09 00:49:22;;;;;;;19.62;7.03;;;;;;;-0.62;79.44;101415.14;1719665;83;21047;-41
2021/04/09 00:51:50;;;;;;;17.73;6.60;;;;;;;-0.65;79.43;101412.47;1719588;83;21450;-41
2021/04/09 00:54:18;;;;;;;35.03;8.90;;;;;;;-0.68;79.47;101411.92;1719560;83;21627;-40
2021/04/09 00:56:46;;;;;;;30.95;8.15;;;;;;;-0.69;79.50;101417.81;1719748;83;21042;-41
2021/04/09 00:59:14;;;;;;;81.05;13.00;;;;;;;-0.68;79.60;101418.27;1719586;83;21022;-42
2021/04/09 01:01:41;;;;;;;102.87;12.33;;;;;;;-0.72;79.77;101416.41;1693195;83;20998;-42
2021/04/09 01:04:09;;;;;;;94.22;11.03;;;;;;;-0.74;80.02;101422.72;1719676;83;22214;-41
2021/04/09 01:07:47;;;;;;;86.60;11.40;;;;;;;-0.76;80.22;101418.36;1776966;79;22747;-41
2021/04/09 01:10:18;;;;;;;77.22;9.63;;;;;;;-0.82;80.32;101421.91;1749521;81;21562;-40
2021/04/09 01:12:47;;;;;;;39.42;8.53;;;;;;;-0.86;80.48;101432.34;1749423;82;21377;-42
2021/04/09 01:15:17;;;;;;;31.95;8.25;;;;;;;-0.91;80.56;101422.38;1749345;82;20951;-43
2021/04/09 01:18:14;;;;;;;34.83;9.80;;;;;;;-1.00;80.58;101426.64;1749403;81;21038;-41
2021/04/09 01:21:13;;;;;;;65.80;9.18;;;;;;;-1.06;80.82;101431.45;1749354;82;21002;-41
2021/04/09 01:24:16;;;;;;;40.03;9.20;;;;;;;-1.11;81.15;101429.13;1749471;82;21018;-42
2021/04/09 01:27:10;;;;;;;20.45;7.80;;;;;;;-1.23;81.09;101429.44;1733034;82;21155;-42
2021/04/09 01:30:17;;;;;;;28.60;8.13;;;;;;;-1.40;81.20;101429.91;1714283;82;21035;-42
2021/04/09 01:32:45;;;;;;;12.10;7.33;;;;;;;-1.53;81.38;101435.70;1749535;82;21007;-42
2021/04/09 01:35:14;;;;;;;13.08;7.33;;;;;;;-1.64;81.93;101436.46;1749405;82;20963;-42
2021/04/09 01:37:55;;;;;;;12.82;8.33;;;;;;;-1.69;82.48;101435.77;1724059;82;21194;-42
2021/04/09 01:40:28;;;;;;;18.48;8.13;;;;;;;-1.72;83.03;101441.97;1719559;83;21252;-41
2021/04/09 01:42:59;;;;;;;15.30;8.23;;;;;;;-1.78;83.40;101440.88;1719302;83;21018;-41
2021/04/09 01:45:27;;;;;;;13.45;7.03;;;;;;;-1.81;83.87;101435.66;1719567;83;21038;-41
2021/04/09 01:47:57;;;;;;;17.75;8.10;;;;;;;-1.80;84.48;101437.79;1719488;83;20947;-41
2021/04/09 01:50:27;;;;;;;16.57;8.48;;;;;;;-1.81;84.81;101444.94;1719596;83;20927;-41
2021/04/09 01:52:54;;;;;;;19.20;8.53;;;;;;;-1.84;84.99;101443.14;1719378;83;21213;-41
2021/04/09 01:55:22;;;;;;;18.77;8.60;;;;;;;-1.91;85.15;101443.23;1719518;83;20986;-41
2021/04/09 01:57:50;;;;;;;13.25;8.53;;;;;;;-1.93;85.64;101449.02;1719542;82;21073;-40
2021/04/09 02:00:22;;;;;;;15.95;9.50;;;;;;;-1.95;85.93;101449.34;1719471;83;21030;-41
2021/04/09 02:02:50;;;;;;;18.07;8.50;;;;;;;-1.98;86.12;101455.16;1719590;83;22159;-41
2021/04/09 02:05:21;;;;;;;16.62;8.63;;;;;;;-2.02;86.30;101455.81;1719506;83;21421;-41
2021/04/09 02:07:49;;;;;;;12.18;8.05;;;;;;;-2.04;86.61;101456.98;1720092;83;21069;-41
2021/04/09 02:10:19;;;;;;;19.92;9.30;;;;;;;-2.06;86.78;101461.50;1720306;83;21010;-41
2021/04/09 02:12:47;;;;;;;14.35;9.10;;;;;;;-2.06;87.09;101469.12;1694374;83;21496;-41
2021/04/09 02:15:22;;;;;;;12.23;7.90;;;;;;;-2.06;87.19;101470.00;1720250;83;21014;-40
2021/04/09 02:17:49;;;;;;;18.02;9.43;;;;;;;-2.11;87.23;101475.26;1720204;83;21260;-41
2021/04/09 02:20:19;;;;;;;17.27;9.48;;;;;;;-2.17;87.35;101476.19;1693333;83;21086;-41
2021/04/09 02:22:48;;;;;;;17.10;8.98;;;;;;;-2.22;87.49;101482.33;1719844;83;20943;-41
2021/04/09 02:25:19;;;;;;;16.10;9.25;;;;;;;-2.28;87.62;101482.41;1719745;83;20900;-41
2021/04/09 02:27:48;;;;;;;21.20;8.43;;;;;;;-2.35;87.72;101487.56;1693837;83;21086;-41
2021/04/09 02:30:18;;;;;;;21.65;9.20;;;;;;;-2.40;87.89;101482.27;1719771;83;21384;-41
2021/04/09 02:32:46;;;;;;;14.80;9.25;;;;;;;-2.44;87.98;101491.76;1719760;83;20967;-41
2021/04/09 02:35:14;;;;;;;21.30;8.85;;;;;;;-2.50;88.03;101490.19;1719763;83;20927;-41
2021/04/09 02:37:44;;;;;;;29.10;9.90;;;;;;;-2.52;88.22;101491.77;1719723;82;21046;-41
2021/04/09 02:40:19;;;;;;;32.48;9.35;;;;;;;-2.56;88.18;101500.02;1719886;83;21046;-41
2021/04/09 02:42:49;;;;;;;23.77;9.28;;;;;;;-2.63;88.22;101498.81;1719865;83;22299;-42
2021/04/09 02:45:19;;;;;;;26.82;7.70;;;;;;;-2.64;88.27;101500.88;1719818;83;21559;-42
2021/04/09 02:47:46;;;;;;;47.45;20.65;;;;;;;-2.70;88.16;101504.37;1719733;83;21029;-42
2021/04/09 02:50:32;;;;;;;28.55;8.83;;;;;;;-2.79;88.12;101504.75;1719711;83;21074;-42
2021/04/09 02:53:14;;;;;;;19.77;8.78;;;;;;;-2.88;88.10;101502.59;1719802;83;21684;-42
2021/04/09 02:55:44;;;;;;;21.12;8.78;;;;;;;-2.99;88.04;101510.03;1719752;83;21135;-41
2021/04/09 02:58:14;;;;;;;20.52;8.08;;;;;;;-3.09;88.05;101516.26;1719669;83;21034;-40
2021/04/09 03:00:47;;;;;;;22.17;9.65;;;;;;;-3.20;88.16;101523.27;1693633;83;20998;-41
2021/04/09 03:03:17;;;;;;;37.20;8.83;;;;;;;-3.28;88.25;101529.55;1719739;82;21006;-42
2021/04/09 03:05:45;;;;;;;23.70;9.43;;;;;;;-3.34;88.42;101535.17;1719716;83;21581;-41
2021/04/09 03:08:13;;;;;;;24.50;9.30;;;;;;;-3.38;88.65;101538.33;1719696;83;21894;-41
2021/04/09 03:10:40;;;;;;;100.60;39.55;;;;;;;-3.40;88.85;101539.49;1719697;83;21050;-41
2021/04/09 03:13:08;;;;;;;257.80;97.27;;;;;;;-3.38;88.98;101542.98;1719780;83;20991;-41
2021/04/09 03:15:54;;;;;;;98.97;34.83;;;;;;;-3.35;89.04;101547.36;1719731;83;21010;-40
2021/04/09 03:18:21;;;;;;;24.47;9.98;;;;;;;-3.33;89.02;101553.38;1693738;83;21013;-41
2021/04/09 03:20:49;;;;;;;29.45;12.18;;;;;;;-3.27;89.00;101557.52;1719668;83;21264;-41
2021/04/09 03:23:17;;;;;;;35.05;13.03;;;;;;;-3.23;89.09;101561.95;1719759;83;21058;-42
2021/04/09 03:25:45;;;;;;;29.65;11.57;;;;;;;-3.20;89.18;101557.05;1719705;83;21058;-42
2021/04/09 03:28:13;;;;;;;30.30;11.43;;;;;;;-3.18;89.26;101563.48;1719729;83;21101;-40
2021/04/09 03:30:49;;;;;;;25.85;11.10;;;;;;;-3.20;89.23;101565.92;1719704;83;20995;-41
2021/04/09 03:33:10;;;;;;;29.67;11.45;;;;;;;-3.23;89.34;101574.62;1718705;83;21213;-41
2021/04/09 03:35:38;;;;;;;52.83;12.10;;;;;;;-3.24;89.44;101573.28;1719671;83;21014;-41
2021/04/09 03:38:05;;;;;;;54.10;11.75;;;;;;;-3.23;89.65;101580.95;1719694;83;20959;-42
2021/04/09 03:40:34;;;;;;;70.60;12.73;;;;;;;-3.21;89.87;101573.45;1719674;83;20943;-42
2021/04/09 03:43:01;;;;;;;98.42;16.73;;;;;;;-3.14;90.08;101574.67;1719748;83;20955;-42
2021/04/09 03:45:29;;;;;;;74.72;18.48;;;;;;;-3.05;90.32;101579.83;1719715;83;21372;-41
2021/04/09 03:47:57;;;;;;;80.92;17.60;;;;;;;-2.92;90.58;101578.84;1719682;82;21086;-42
2021/04/09 03:50:24;;;;;;;61.60;16.90;;;;;;;-2.74;90.86;101581.91;1719729;83;20916;-41
2021/04/09 03:52:52;;;;;;;76.22;15.68;;;;;;;-2.53;91.08;101584.71;1719652;83;21018;-42
2021/04/09 03:55:19;;;;;;;99.30;14.55;;;;;;;-2.28;91.25;101583.88;1719716;83;20967;-41
2021/04/09 03:57:49;;;;;;;38.50;10.78;;;;;;;-2.02;91.36;101587.37;1719575;83;21440;-42
2021/04/09 04:00:18;;;;;;;36.75;11.22;;;;;;;-1.73;91.32;101588.38;1719626;83;21026;-41
2021/04/09 04:02:46;;;;;;;33.50;10.80;;;;;;;-1.53;91.18;101593.55;1719695;83;20943;-40
2021/04/09 04:05:16;;;;;;;25.02;10.18;;;;;;;-1.36;91.03;101596.95;1719682;83;21023;-41
2021/04/09 04:07:44;;;;;;;25.52;9.70;;;;;;;-1.21;90.92;101601.90;1719598;83;21558;-42
2021/04/09 04:10:13;;;;;;;25.68;11.20;;;;;;;-1.07;90.83;101605.10;1719823;83;21146;-42
2021/04/09 04:12:41;;;;;;;71.65;21.15;;;;;;;-0.95;90.75;101611.17;1719646;83;21046;-42
2021/04/09 04:15:09;;;;;;;44.63;18.00;;;;;;;-0.82;90.59;101611.34;1719660;83;21050;-42
2021/04/09 04:17:37;;;;;;;81.57;29.12;;;;;;;-0.66;90.52;101617.59;1719671;83;20974;-41
2021/04/09 04:20:06;;;;;;;69.20;26.07;;;;;;;-0.48;90.53;101607.42;1719741;83;21306;-41
2021/04/09 04:22:34;;;;;;;113.97;37.23;;;;;;;-0.20;90.54;101612.86;1719795;82;21384;-41
2021/04/09 04:25:03;;;;;;;75.15;26.23;;;;;;;0.09;90.37;101619.62;1719607;83;21109;-41
2021/04/09 04:27:30;;;;;;;59.83;21.30;;;;;;;0.42;89.99;101626.98;1719621;83;21006;-41
2021/04/09 04:29:58;;;;;;;49.58;13.25;;;;;;;0.69;89.54;101620.86;1719627;83;21339;-41
2021/04/09 04:32:27;;;;;;;27.40;10.53;;;;;;;0.95;89.33;101624.87;1719679;83;20935;-40
2021/04/09 04:34:54;;;;;;;28.10;8.53;;;;;;;1.20;89.26;101626.26;1719724;83;21420;-42
2021/04/09 04:37:22;;;;;;;22.02;9.53;;;;;;;1.34;89.02;101625.09;1719551;82;20998;-41
2021/04/09 04:39:50;;;;;;;29.23;9.30;;;;;;;1.47;87.61;101633.23;1719647;83;21014;-42
2021/04/09 04:42:18;;;;;;;20.88;8.20;;;;;;;1.60;87.36;101634.13;1719658;83;20991;-41
2021/04/09 04:44:46;;;;;;;26.93;8.85;;;;;;;1.78;86.47;101640.75;1719728;83;21040;-41
2021/04/09 04:47:14;;;;;;;18.73;8.55;;;;;;;1.92;84.17;101639.97;1719672;83;21161;-41
2021/04/09 04:49:42;;;;;;;14.78;8.10;;;;;;;2.09;83.67;101646.95;1719679;83;21093;-41
2021/04/09 04:52:10;;;;;;;16.60;8.05;;;;;;;2.28;82.58;101646.80;1719696;83;21115;-41
2021/04/09 04:54:38;;;;;;;15.08;7.92;;;;;;;2.42;81.15;101647.70;1719603;83;20963;-41
2021/04/09 04:57:07;;;;;;;14.28;8.45;;;;;;;2.54;78.48;101653.21;1719702;83;20943;-41
2021/04/09 04:59:35;;;;;;;13.38;9.15;;;;;;;2.64;77.15;101649.67;1719639;83;21205;-41
2021/04/09 05:02:02;;;;;;;16.80;8.08;;;;;;;2.76;76.44;101656.48;1719591;83;21041;-41
2021/04/09 05:04:30;;;;;;;10.88;7.90;;;;;;;2.93;76.18;101653.20;1719653;83;21015;-40
2021/04/09 05:06:59;;;;;;;13.00;7.95;;;;;;;3.04;74.59;101658.66;1719532;83;21193;-41
2021/04/09 05:09:27;;;;;;;13.72;7.62;;;;;;;3.10;73.78;101656.29;1719673;83;20946;-42
2021/04/09 05:11:54;;;;;;;19.48;8.43;;;;;;;3.22;73.61;101653.67;1719799;83;22307;-41
2021/04/09 05:14:22;;;;;;;13.30;8.60;;;;;;;3.28;72.62;101652.18;1719582;83;21038;-41
2021/04/09 05:16:50;;;;;;;18.12;8.28;;;;;;;3.37;72.50;101656.69;1719609;83;21165;-41
2021/04/09 05:19:19;;;;;;;13.75;8.38;;;;;;;3.44;72.16;101661.20;1719609;83;21101;-42
2021/04/09 05:21:46;;;;;;;12.93;8.15;;;;;;;3.50;71.51;101656.64;1719703;83;20915;-41
2021/04/09 05:24:15;;;;;;;18.05;9.05;;;;;;;3.57;70.79;101656.42;1719673;83;21339;-41
2021/04/09 05:26:42;;;;;;;16.37;9.33;;;;;;;3.67;70.50;101658.84;1719516;82;21102;-41
2021/04/09 05:29:10;;;;;;;17.00;8.93;;;;;;;3.72;69.81;101660.73;1719597;82;21042;-41
2021/04/09 05:31:38;;;;;;;16.90;9.48;;;;;;;3.78;69.42;101655.32;1719585;83;21207;-42
2021/04/09 05:34:05;;;;;;;19.05;10.23;;;;;;;3.82;69.51;101658.42;1719603;83;20936;-40
2021/04/09 05:36:33;;;;;;;21.40;8.93;;;;;;;3.91;69.33;101659.10;1719598;82;21205;-41
2021/04/09 05:39:01;;;;;;;15.50;9.40;;;;;;;3.95;68.92;101657.96;1719552;83;21618;-41
2021/04/09 05:41:29;;;;;;;20.08;10.53;;;;;;;3.98;68.25;101663.17;1719655;82;20955;-41
2021/04/09 05:43:57;;;;;;;24.55;10.50;;;;;;;3.97;67.25;101666.55;1719637;83;21014;-41
2021/04/09 05:46:24;;;;;;;20.40;11.03;;;;;;;3.92;66.96;101665.96;1719688;83;21050;-42
2021/04/09 05:48:52;;;;;;;16.50;10.58;;;;;;;3.91;66.37;101673.19;1719575;83;21450;-41
2021/04/09 05:51:19;;;;;;;17.45;10.63;;;;;;;3.84;66.60;101674.70;1719542;83;20967;-41
2021/04/09 05:53:47;;;;;;;21.20;11.12;;;;;;;3.85;67.01;101677.72;1719715;83;21046;-41
2021/04/09 05:56:15;;;;;;;21.27;10.30;;;;;;;3.95;67.52;101676.30;1719755;83;20911;-41
2021/04/09 05:58:43;;;;;;;23.38;10.70;;;;;;;4.01;66.55;101679.91;1719812;83;21050;-41
2021/04/09 06:01:10;;;;;;;21.27;10.63;;;;;;;4.06;66.19;101672.75;1719798;83;21370;-42
2021/04/09 06:03:38;;;;;;;16.50;10.43;;;;;;;4.10;65.50;101675.85;1719758;83;20991;-42
2021/04/09 06:06:06;;;;;;;26.65;11.28;;;;;;;4.13;66.41;101680.66;1719758;83;20943;-42
2021/04/09 06:08:33;;;;;;;21.30;11.80;;;;;;;4.22;66.57;101678.77;1719631;83;21046;-43
2021/04/09 06:11:01;;;;;;;23.30;10.68;;;;;;;4.38;66.45;101689.42;1719762;82;21042;-42
2021/04/09 06:13:29;;;;;;;17.65;10.85;;;;;;;4.51;66.16;101687.66;1719791;83;21364;-42
2021/04/09 06:15:57;;;;;;;19.20;10.48;;;;;;;4.56;64.94;101684.79;1719762;83;21034;-42
2021/04/09 06:18:25;;;;;;;20.60;11.10;;;;;;;4.65;65.59;101685.84;1719770;83;20939;-42
2021/04/09 06:20:53;;;;;;;18.98;11.53;;;;;;;4.80;65.36;101686.65;1719750;83;21011;-42
2021/04/09 06:23:20;;;;;;;19.27;10.93;;;;;;;4.87;64.31;101684.72;1719798;83;20939;-42
2021/04/09 06:25:48;;;;;;;17.42;10.93;;;;;;;4.88;64.30;101682.16;1719748;83;21378;-42
2021/04/09 06:28:15;;;;;;;16.85;10.13;;;;;;;5.01;64.02;101685.90;1719646;83;20947;-42
2021/04/09 06:30:43;;;;;;;23.67;10.50;;;;;;;5.11;62.71;101690.84;1719719;83;21327;-42
2021/04/09 06:33:11;;;;;;;28.60;12.45;;;;;;;5.17;62.59;101685.84;1719745;83;21078;-42
2021/04/09 06:35:38;;;;;;;11.03;8.85;;;;;;;5.34;62.88;101685.38;1719747;83;21026;-42
2021/04/09 06:38:06;;;;;;;12.65;7.55;;;;;;;5.46;61.75;101680.94;1719696;82;21369;-41
2021/04/09 06:40:34;;;;;;;10.25;7.28;;;;;;;5.64;59.94;101682.19;1719680;83;20975;-42
2021/04/09 06:43:02;;;;;;;11.68;8.23;;;;;;;5.88;58.94;101684.39;1719760;83;21014;-42
2021/04/09 06:45:30;;;;;;;21.48;9.48;;;;;;;6.02;56.51;101685.59;1719827;83;20915;-42
2021/04/09 06:47:58;;;;;;;16.40;8.25;;;;;;;6.01;56.68;101686.43;1719749;83;21086;-42
2021/04/09 06:50:28;;;;;;;17.30;8.18;;;;;;;6.03;56.16;101687.33;1719763;83;22391;-42
2021/04/09 06:52:56;;;;;;;9.13;7.17;;;;;;;6.07;54.43;101686.98;1719617;83;21034;-42
2021/04/09 06:55:24;;;;;;;9.43;7.65;;;;;;;6.04;55.59;101690.75;1719707;83;21148;-40
2021/04/09 06:57:52;;;;;;;12.25;7.85;;;;;;;6.06;54.26;101683.92;1719705;83;21019;-42
2021/04/09 07:00:26;;;;;;;15.30;7.87;;;;;;;6.11;55.07;101682.74;1719821;83;21002;-41
2021/04/09 07:02:53;;;;;;;11.68;7.62;;;;;;;6.22;55.32;101685.53;1719735;83;21350;-42
2021/04/09 07:05:21;;;;;;;22.35;8.15;;;;;;;6.32;54.27;101684.88;1719678;83;21572;-41
2021/04/09 07:07:49;;;;;;;13.25;7.37;;;;;;;6.67;53.87;101683.77;1717209;83;21586;-41
2021/04/09 07:10:16;;;;;;;18.73;8.53;;;;;;;6.67;53.87;101683.77;1706158;84;20939;-42
2021/04/09 07:12:45;;;;;;;8.88;6.35;;;;;;;6.78;53.22;101682.66;1706222;84;21043;-41
2021/04/09 07:15:17;;;;;;;9.58;5.87;;;;;;;6.77;51.29;101688.25;1706182;84;21430;-41
2021/04/09 07:17:48;;;;;;;8.55;6.00;;;;;;;7.07;52.23;101686.12;1706155;83;21040;-42
2021/04/09 07:20:30;;;;;;;8.80;5.87;;;;;;;7.07;52.23;101686.12;1706275;83;21576;-42
2021/04/09 07:22:59;;;;;;;12.78;7.40;;;;;;;7.31;51.14;101692.09;1706183;82;21102;-42
2021/04/09 07:25:39;;;;;;;11.20;6.45;;;;;;;7.48;51.00;101691.05;1706059;84;21098;-43
2021/04/09 07:28:21;;;;;;;8.38;5.00;;;;;;;7.61;49.84;101686.52;1706131;84;21377;-42
2021/04/09 07:30:54;;;;;;;12.47;6.22;;;;;;;7.82;47.97;101695.36;1706196;84;21750;-42
2021/04/09 07:33:25;;;;;;;11.80;5.97;;;;;;;7.89;47.84;101700.17;1706190;84;21118;-42
2021/04/09 07:35:59;;;;;;;16.85;7.12;;;;;;;8.08;48.35;101697.83;1706142;82;21059;-42
2021/04/09 07:38:34;;;;;;;12.70;6.78;;;;;;;8.24;48.19;101699.75;1706177;84;21027;-42
2021/04/09 07:41:07;;;;;;;15.58;6.37;;;;;;;8.31;49.21;101707.98;1706158;84;21153;-43
2021/04/09 07:43:39;;;;;;;10.03;5.97;;;;;;;8.38;47.21;101714.50;1706012;83;20959;-43
2021/04/09 07:46:08;;;;;;;7.65;5.45;;;;;;;8.39;45.73;101711.95;1706184;83;21619;-43
2021/04/09 07:48:38;;;;;;;8.90;6.42;;;;;;;8.24;47.12;101707.89;1706102;84;21014;-42
2021/04/09 07:51:08;;;;;;;13.45;6.08;;;;;;;8.26;46.06;101706.20;1706085;84;21038;-43
2021/04/09 07:53:41;;;;;;;7.67;5.47;;;;;;;8.11;45.50;101705.19;1706176;84;21210;-43
2021/04/09 07:56:17;;;;;;;9.58;5.75;;;;;;;7.96;45.18;101712.73;1706139;83;21099;-42
2021/04/09 07:58:46;;;;;;;12.35;5.78;;;;;;;8.05;46.30;101712.83;1706049;84;21046;-43
2021/04/09 08:01:26;;;;;;;5.92;4.55;;;;;;;8.41;46.49;101714.53;1706114;84;20947;-42
2021/04/09 08:03:55;;;;;;;6.95;4.62;;;;;;;8.45;44.26;101706.84;1706147;83;21070;-41
2021/04/09 08:06:24;;;;;;;21.40;5.45;;;;;;;8.39;42.81;101712.36;1706117;83;21355;-42
2021/04/09 08:09:00;;;;;;;10.13;5.08;;;;;;;8.62;43.37;101714.78;1712360;83;21069;-43
2021/04/09 08:11:35;;;;;;;6.83;5.28;;;;;;;8.93;42.57;101704.28;1719700;83;20912;-42
2021/04/09 08:14:13;;;;;;;34.63;7.30;;;;;;;9.42;42.50;101708.53;1719636;83;20943;-41
2021/04/09 08:16:50;;;;;;;19.65;6.08;;;;;;;9.45;42.33;101715.00;1719590;83;21010;-43
2021/04/09 08:19:25;;;;;;;13.80;4.90;;;;;;;9.11;42.29;101707.47;1719773;83;22272;-42
2021/04/09 08:21:57;;;;;;;8.05;4.65;;;;;;;8.99;42.56;101712.11;1719640;83;20951;-43
2021/04/09 08:24:28;;;;;;;8.95;5.05;;;;;;;8.99;39.86;101708.23;1719646;83;21018;-42
2021/04/09 08:26:55;;;;;;;5.60;4.25;;;;;;;9.03;40.46;101704.37;1719787;83;21560;-43
2021/04/09 08:29:23;;;;;;;7.12;4.40;;;;;;;9.26;39.90;101699.81;1719758;83;21082;-42
2021/04/09 08:31:51;;;;;;;8.00;4.47;;;;;;;9.39;39.43;101704.63;1719677;83;21202;-42
2021/04/09 08:34:20;;;;;;;4.05;3.62;;;;;;;9.86;39.47;101707.48;1719600;83;21610;-42
2021/04/09 08:36:51;;;;;;;4.62;4.15;;;;;;;10.03;36.61;101704.54;1719616;82;21117;-40
2021/04/09 08:39:21;;;;;;;10.98;5.40;;;;;;;10.00;37.60;101699.36;1715902;83;21022;-42
2021/04/09 08:41:49;;;;;;;7.45;4.95;;;;;;;10.06;37.00;101698.50;1719690;83;20963;-42
2021/04/09 08:44:19;;;;;;;7.75;5.05;;;;;;;9.98;39.39;101703.66;1719732;83;21149;-42
2021/04/09 08:46:47;;;;;;;7.33;6.00;;;;;;;10.07;39.46;101704.10;1719610;83;21042;-41
2021/04/09 08:49:16;;;;;;;10.85;6.65;;;;;;;10.30;40.70;101701.61;1719712;83;21601;-42
2021/04/09 08:51:44;;;;;;;8.18;5.67;;;;;;;10.10;41.45;101704.55;1719729;83;21457;-41
2021/04/09 08:54:23;;;;;;;6.35;4.40;;;;;;;9.57;40.56;101705.16;1693748;83;21335;-42
2021/04/09 08:56:51;;;;;;;5.85;4.80;;;;;;;9.15;39.95;101713.09;1719616;83;21262;-41
2021/04/09 08:59:44;;;;;;;10.55;4.78;;;;;;;8.96;41.17;101705.60;1719674;83;21038;-41
2021/04/09 09:02:24;;;;;;;22.87;6.05;;;;;;;9.03;41.22;101705.67;1719680;83;21129;-41
2021/04/09 09:05:05;;;;;;;6.90;5.00;;;;;;;9.13;41.44;101704.02;1719688;83;21098;-45
2021/04/09 09:07:54;;;;;;;9.48;5.37;;;;;;;9.45;40.87;101702.52;1719608;83;20962;-42
2021/04/09 09:31:50;;;;;;;12.25;5.95;;;;;;;9.79;41.06;101698.82;1802781;79;21736;-41
2021/04/09 09:34:30;;;;;;;8.53;5.10;;;;;;;9.54;41.20;101704.30;1788943;80;20931;-42
2021/04/09 09:37:13;;;;;;;9.05;6.00;;;;;;;9.04;42.80;101713.86;1789061;80;22296;-42
2021/04/09 09:42:41;;;;;;;8.83;5.80;;;;;;;8.32;43.94;101720.04;1889898;76;22575;-45
2021/04/09 09:45:11;;;;;;;42.75;6.90;;;;;;;8.04;45.18;101720.12;1860744;77;21546;-42
2021/04/09 09:47:44;;;;;;;11.88;5.78;;;;;;;7.91;45.68;101720.39;1860764;77;21410;-44
2021/04/09 09:50:22;;;;;;;29.80;7.00;;;;;;;7.87;45.24;101715.64;1860638;77;21013;-42
2021/04/09 09:53:02;;;;;;;45.25;6.78;;;;;;;7.91;45.12;101717.41;1860811;77;21073;-42
2021/04/09 09:55:45;;;;;;;22.52;6.05;;;;;;;8.01;45.27;101714.53;1860667;77;21017;-42
2021/04/09 09:58:24;;;;;;;22.05;6.08;;;;;;;8.14;44.68;101710.38;1860558;77;21026;-41
2021/04/09 10:01:03;;;;;;;12.43;5.15;;;;;;;8.27;44.20;101722.11;1860686;77;21379;-42
2021/04/09 10:03:36;;;;;;;7.75;4.95;;;;;;;8.23;43.82;101705.76;1860721;77;20931;-42
2021/04/09 10:06:12;;;;;;;8.15;5.30;;;;;;;8.30;43.64;101713.12;1860817;77;21143;-42
2021/04/09 10:08:43;;;;;;;33.83;6.65;;;;;;;8.68;43.89;101709.23;1856165;77;21010;-40
2021/04/09 10:11:16;;;;;;;29.23;6.47;;;;;;;9.43;41.47;101705.53;1860691;77;20994;-41
2021/04/09 10:13:46;;;;;;;10.60;4.90;;;;;;;10.13;40.89;101695.50;1860768;77;21377;-42
2021/04/09 10:16:25;;;;;;;43.87;6.30;;;;;;;10.30;38.85;101705.48;1860713;77;21606;-43
2021/04/09 10:19:00;;;;;;;78.07;8.98;;;;;;;9.81;38.98;101701.42;1860698;77;20970;-43
2021/04/09 10:21:31;;;;;;;8.40;5.17;;;;;;;9.35;39.58;101705.48;1828093;77;20946;-43
2021/04/09 10:24:16;;;;;;;30.25;5.42;;;;;;;8.86;40.87;101714.57;1860633;77;21001;-43
2021/04/09 10:26:52;;;;;;;8.23;4.50;;;;;;;8.60;41.53;101728.10;1860727;77;21370;-43
2021/04/09 10:29:35;;;;;;;29.82;5.67;;;;;;;8.48;42.28;101718.48;1856237;77;20989;-43
2021/04/09 10:32:05;;;;;;;40.80;6.62;;;;;;;8.55;42.57;101713.00;1826945;78;20887;-42
2021/04/09 10:34:34;;;;;;;56.18;7.87;;;;;;;8.55;42.24;101712.13;1795362;78;21128;-41
2021/04/09 10:37:06;;;;;;;84.22;9.55;;;;;;;8.45;42.81;101711.13;1826916;78;20946;-42
2021/04/09 10:39:38;;;;;;;52.40;6.05;;;;;;;8.38;43.40;101710.63;1827027;78;20990;-42
2021/04/09 10:42:07;;;;;;;33.67;6.70;;;;;;;8.31;44.25;101713.55;1825449;78;20985;-41
2021/04/09 10:44:34;;;;;;;14.55;4.95;;;;;;;8.32;44.56;101714.87;1797679;78;21013;-42
2021/04/09 10:47:05;;;;;;;49.58;6.67;;;;;;;8.42;44.32;101718.84;1824967;78;21483;-42
2021/04/09 10:49:36;;;;;;;146.55;10.70;;;;;;;8.47;44.66;101717.20;1824921;78;21614;-42
2021/04/09 10:52:10;;;;;;;16.25;5.03;;;;;;;8.50;45.03;101717.25;1824782;78;21367;-42
2021/04/09 10:54:41;;;;;;;49.48;7.03;;;;;;;8.77;43.92;101710.19;1824263;78;20965;-42
2021/04/09 10:57:18;;;;;;;87.37;8.63;;;;;;;9.34;43.25;101706.33;1824316;78;21022;-42
2021/04/09 10:59:49;;;;;;;11.30;4.90;;;;;;;9.54;41.95;101710.32;1824436;78;20943;-42
2021/04/09 11:02:24;;;;;;;9.63;3.77;;;;;;;9.61;40.84;101701.77;1824275;78;21033;-41
2021/04/09 11:04:58;;;;;;;6.75;4.30;;;;;;;9.53;39.11;101706.01;1824291;78;22173;-41
2021/04/09 11:07:48;;;;;;;5.10;4.62;;;;;;;9.67;39.22;101698.33;1824302;78;21641;-42
2021/04/09 11:10:37;;;;;;;13.68;4.90;;;;;;;10.18;39.38;101704.14;1821487;78;21033;-42
2021/04/09 11:13:06;;;;;;;15.80;4.95;;;;;;;10.43;38.63;101699.06;1820389;78;21077;-41
2021/04/09 11:15:43;;;;;;;10.40;4.17;;;;;;;10.13;39.62;101692.92;1824424;78;20986;-42
2021/04/09 11:18:13;;;;;;;23.27;5.07;;;;;;;10.18;39.02;101702.44;1824694;78;21199;-42
2021/04/09 11:20:45;;;;;;;5.10;4.40;;;;;;;10.33;38.75;101693.84;1824208;78;21077;-43
2021/04/09 11:23:15;;;;;;;249.00;13.18;;;;;;;10.67;37.96;101695.66;1824261;78;21017;-42
2021/04/09 11:25:49;;;;;;;86.75;8.85;;;;;;;10.79;39.07;101692.22;1824269;77;21061;-42
2021/04/09 11:28:29;;;;;;;9.58;4.70;;;;;;;11.04;39.02;101689.17;1820315;78;20951;-42
2021/04/09 11:31:05;;;;;;;67.78;6.65;;;;;;;10.98;39.65;101694.37;1824257;77;22335;-42
2021/04/09 11:33:35;;;;;;;5.78;4.90;;;;;;;10.91;39.56;101689.62;1824402;78;21029;-42
2021/04/09 11:36:23;;;;;;;9.05;4.45;;;;;;;10.76;39.56;101693.52;1824360;78;21451;-44
2021/04/09 11:39:12;;;;;;;11.33;5.72;;;;;;;10.44;39.41;101699.49;1824313;78;21037;-43
2021/04/09 11:41:42;;;;;;;21.23;5.25;;;;;;;10.00;40.03;101697.19;1821789;78;21013;-43
2021/04/09 11:44:38;;;;;;;30.55;6.37;;;;;;;9.89;41.26;101701.02;1826407;78;22267;-43
2021/04/09 11:47:28;;;;;;;9.33;4.90;;;;;;;9.75;41.97;101700.55;1826369;78;21669;-42
2021/04/09 11:50:15;;;;;;;8.58;5.40;;;;;;;9.47;41.70;101699.52;1826315;78;20978;-42
2021/04/09 11:53:03;;;;;;;62.13;7.95;;;;;;;9.24;43.05;101700.23;1826255;78;20946;-42
2021/04/09 11:55:38;;;;;;;53.80;7.85;;;;;;;9.15;43.74;101706.64;1826305;78;20922;-42
2021/04/09 11:58:22;;;;;;;9.93;5.87;;;;;;;9.36;44.48;101696.02;1826575;78;22067;-43
2021/04/09 12:00:57;;;;;;;37.58;6.97;;;;;;;9.61;41.73;101684.97;1826235;78;20949;-43
2021/04/09 12:03:43;;;;;;;21.23;5.80;;;;;;;9.99;40.76;101678.23;1826429;78;21487;-43
2021/04/09 12:06:18;;;;;;;72.78;9.33;;;;;;;10.24;40.90;101680.02;1826521;78;21002;-43
2021/04/09 12:08:45;;;;;;;146.40;11.20;;;;;;;10.54;39.02;101688.31;1826582;78;21005;-43